sensor_id;sensor_type;location;lat;lon;timestamp;P1;durP1;ratioP1;P2;durP2;ratioP2
75516;SDS011;64097;52.548;13.406;2023-06-10T06:01:42;7.32;;;5.28;;
75516;SDS011;64097;52.548;13.406;2023-06-10T06:04:07;7.05;;;5.53;;
75516;SDS011;64097;52.548;13.406;2023-06-10T06:06:34;6.88;;;5.10;;
75516;SDS011;64097;52.548;13.406;2023-06-10T06:09:00;5.35;;;4.68;;
75516;SDS011;64097;52.548;13.406;2023-06-10T06:11:26;6.07;;;5.10;;
75516;SDS011;64097;52.548;13.406;2023-06-10T06:13:52;4.85;;;4.35;;
75516;SDS011;64097;52.548;13.406;2023-06-10T06:16:17;7.03;;;4.53;;
75516;SDS011;64097;52.548;13.406;2023-06-10T06:18:43;6.25;;;5.07;;
75516;SDS011;64097;52.548;13.406;2023-06-10T06:21:09;5.95;;;5.03;;
75516;SDS011;64097;52.548;13.406;2023-06-10T06:23:35;10.40;;;5.68;;
75516;SDS011;64097;52.548;13.406;2023-06-10T06:26:00;6.07;;;5.22;;
75516;SDS011;64097;52.548;13.406;2023-06-10T06:28:26;6.07;;;4.95;;
75516;SDS011;64097;52.548;13.406;2023-06-10T06:30:54;5.70;;;4.60;;
75516;SDS011;64097;52.548;13.406;2023-06-10T06:33:21;6.72;;;4.85;;
75516;SDS011;64097;52.548;13.406;2023-06-10T06:35:47;7.97;;;4.70;;
75516;SDS011;64097;52.548;13.406;2023-06-10T06:38:12;5.55;;;4.75;;
75516;SDS011;64097;52.548;13.406;2023-06-10T06:40:38;5.70;;;4.53;;
75516;SDS011;64097;52.548;13.406;2023-06-10T06:43:03;9.35;;;5.05;;
75516;SDS011;64097;52.548;13.406;2023-06-10T06:45:29;6.57;;;5.25;;
75516;SDS011;64097;52.548;13.406;2023-06-10T06:47:55;6.75;;;4.70;;
75516;SDS011;64097;52.548;13.406;2023-06-10T06:50:21;5.10;;;4.50;;
75516;SDS011;64097;52.548;13.406;2023-06-10T06:52:47;6.80;;;4.70;;
75516;SDS011;64097;52.548;13.406;2023-06-10T06:55:12;6.93;;;5.30;;
75516;SDS011;64097;52.548;13.406;2023-06-10T06:57:38;6.75;;;5.20;;
75516;SDS011;64097;52.548;13.406;2023-06-10T07:00:04;6.70;;;4.80;;
75516;SDS011;64097;52.548;13.406;2023-06-10T07:02:30;5.22;;;4.65;;
75516;SDS011;64097;52.548;13.406;2023-06-10T07:04:59;7.28;;;5.05;;
75516;SDS011;64097;52.548;13.406;2023-06-10T07:07:25;7.40;;;5.20;;
75516;SDS011;64097;52.548;13.406;2023-06-10T07:09:52;8.80;;;5.10;;
75516;SDS011;64097;52.548;13.406;2023-06-10T07:12:17;6.93;;;4.80;;
75516;SDS011;64097;52.548;13.406;2023-06-10T07:14:43;9.45;;;5.10;;
75516;SDS011;64097;52.548;13.406;2023-06-10T07:17:09;5.40;;;4.90;;
75516;SDS011;64097;52.548;13.406;2023-06-10T07:19:35;6.30;;;4.82;;
75516;SDS011;64097;52.548;13.406;2023-06-10T07:22:01;6.20;;;4.97;;
75516;SDS011;64097;52.548;13.406;2023-06-10T07:24:26;7.07;;;5.00;;
75516;SDS011;64097;52.548;13.406;2023-06-10T07:26:52;5.65;;;4.57;;
75516;SDS011;64097;52.548;13.406;2023-06-10T07:29:17;5.00;;;4.50;;
75516;SDS011;64097;52.548;13.406;2023-06-10T07:31:43;5.60;;;4.78;;
75516;SDS011;64097;52.548;13.406;2023-06-10T07:34:09;5.72;;;4.63;;
75516;SDS011;64097;52.548;13.406;2023-06-10T07:36:35;8.50;;;4.82;;
75516;SDS011;64097;52.548;13.406;2023-06-10T07:39:02;6.22;;;4.72;;
75516;SDS011;64097;52.548;13.406;2023-06-10T07:41:27;6.05;;;4.70;;
75516;SDS011;64097;52.548;13.406;2023-06-10T07:43:53;5.80;;;5.20;;
75516;SDS011;64097;52.548;13.406;2023-06-10T07:46:23;5.80;;;5.18;;
75516;SDS011;64097;52.548;13.406;2023-06-10T07:48:49;5.65;;;5.05;;
75516;SDS011;64097;52.548;13.406;2023-06-10T07:51:16;5.68;;;5.07;;
75516;SDS011;64097;52.548;13.406;2023-06-10T07:53:42;6.07;;;4.90;;
75516;SDS011;64097;52.548;13.406;2023-06-10T07:56:08;7.50;;;5.35;;
75516;SDS011;64097;52.548;13.406;2023-06-10T07:58:34;5.53;;;5.00;;
75516;SDS011;64097;52.548;13.406;2023-06-10T08:00:59;6.95;;;4.70;;
75516;SDS011;64097;52.548;13.406;2023-06-10T08:03:25;6.30;;;5.57;;
75516;SDS011;64097;52.548;13.406;2023-06-10T08:05:51;6.88;;;5.97;;
75516;SDS011;64097;52.548;13.406;2023-06-10T08:08:16;7.28;;;5.50;;
75516;SDS011;64097;52.548;13.406;2023-06-10T08:10:42;8.40;;;5.78;;
75516;SDS011;64097;52.548;13.406;2023-06-10T08:13:08;6.93;;;5.93;;
75516;SDS011;64097;52.548;13.406;2023-06-10T08:15:34;6.47;;;5.65;;
75516;SDS011;64097;52.548;13.406;2023-06-10T08:18:00;7.22;;;5.78;;
75516;SDS011;64097;52.548;13.406;2023-06-10T08:20:25;5.97;;;5.25;;
75516;SDS011;64097;52.548;13.406;2023-06-10T08:22:51;6.40;;;5.80;;
75516;SDS011;64097;52.548;13.406;2023-06-10T08:25:17;5.97;;;5.40;;
75516;SDS011;64097;52.548;13.406;2023-06-10T08:27:42;7.15;;;5.55;;
75516;SDS011;64097;52.548;13.406;2023-06-10T08:30:08;6.80;;;5.28;;
75516;SDS011;64097;52.548;13.406;2023-06-10T08:32:35;8.07;;;6.38;;
75516;SDS011;64097;52.548;13.406;2023-06-10T08:35:01;6.63;;;5.75;;
75516;SDS011;64097;52.548;13.406;2023-06-10T08:37:28;7.47;;;5.65;;
75516;SDS011;64097;52.548;13.406;2023-06-10T08:39:54;9.93;;;6.55;;
75516;SDS011;64097;52.548;13.406;2023-06-10T08:45:36;9.80;;;6.20;;
75516;SDS011;64097;52.548;13.406;2023-06-10T08:48:03;8.48;;;5.93;;
75516;SDS011;64097;52.548;13.406;2023-06-10T08:50:36;7.13;;;5.47;;
75516;SDS011;64097;52.548;13.406;2023-06-10T08:53:06;8.05;;;5.70;;
75516;SDS011;64097;52.548;13.406;2023-06-10T08:55:33;6.28;;;5.47;;
75516;SDS011;64097;52.548;13.406;2023-06-10T08:58:00;9.38;;;5.50;;
75516;SDS011;64097;52.548;13.406;2023-06-10T09:00:27;6.63;;;5.57;;
75516;SDS011;64097;52.548;13.406;2023-06-10T09:02:55;8.15;;;5.80;;
75516;SDS011;64097;52.548;13.406;2023-06-10T09:05:21;6.55;;;5.68;;
75516;SDS011;64097;52.548;13.406;2023-06-10T09:07:48;8.18;;;5.95;;
75516;SDS011;64097;52.548;13.406;2023-06-10T09:10:14;6.68;;;5.20;;
75516;SDS011;64097;52.548;13.406;2023-06-10T09:12:40;6.40;;;5.43;;
75516;SDS011;64097;52.548;13.406;2023-06-10T09:15:06;7.55;;;5.60;;
75516;SDS011;64097;52.548;13.406;2023-06-10T09:17:33;6.45;;;5.35;;
75516;SDS011;64097;52.548;13.406;2023-06-10T09:20:01;5.55;;;5.05;;
75516;SDS011;64097;52.548;13.406;2023-06-10T09:22:27;7.70;;;5.47;;
75516;SDS011;64097;52.548;13.406;2023-06-10T09:25:06;6.28;;;5.40;;
75516;SDS011;64097;52.548;13.406;2023-06-10T09:27:43;9.63;;;6.50;;
75516;SDS011;64097;52.548;13.406;2023-06-10T09:30:25;6.57;;;5.30;;
75516;SDS011;64097;52.548;13.406;2023-06-10T09:32:53;9.40;;;5.95;;
75516;SDS011;64097;52.548;13.406;2023-06-10T09:35:21;7.13;;;5.63;;
75516;SDS011;64097;52.548;13.406;2023-06-10T09:37:49;6.60;;;5.10;;
75516;SDS011;64097;52.548;13.406;2023-06-10T09:40:19;7.40;;;5.40;;
75516;SDS011;64097;52.548;13.406;2023-06-10T09:42:45;9.85;;;5.60;;
75516;SDS011;64097;52.548;13.406;2023-06-10T09:45:10;7.75;;;6.15;;
75516;SDS011;64097;52.548;13.406;2023-06-10T09:47:36;8.38;;;6.10;;
75516;SDS011;64097;52.548;13.406;2023-06-10T09:50:02;7.95;;;5.78;;
75516;SDS011;64097;52.548;13.406;2023-06-10T09:52:28;6.63;;;5.60;;
75516;SDS011;64097;52.548;13.406;2023-06-10T09:54:58;7.85;;;5.90;;
75516;SDS011;64097;52.548;13.406;2023-06-10T09:57:25;7.68;;;5.38;;
75516;SDS011;64097;52.548;13.406;2023-06-10T09:59:54;6.95;;;5.50;;
75516;SDS011;64097;52.548;13.406;2023-06-10T10:02:20;6.35;;;5.05;;
75516;SDS011;64097;52.548;13.406;2023-06-10T10:04:46;8.48;;;5.88;;
75516;SDS011;64097;52.548;13.406;2023-06-10T10:07:12;8.30;;;5.40;;
75516;SDS011;64097;52.548;13.406;2023-06-10T10:09:40;6.53;;;5.65;;
75516;SDS011;64097;52.548;13.406;2023-06-10T10:12:10;6.28;;;5.47;;
75516;SDS011;64097;52.548;13.406;2023-06-10T10:14:38;8.15;;;5.93;;
75516;SDS011;64097;52.548;13.406;2023-06-10T10:17:07;6.05;;;5.20;;
75516;SDS011;64097;52.548;13.406;2023-06-10T10:19:48;6.47;;;5.88;;
75516;SDS011;64097;52.548;13.406;2023-06-10T10:22:25;8.00;;;6.60;;
75516;SDS011;64097;52.548;13.406;2023-06-10T10:24:59;8.75;;;6.28;;
75516;SDS011;64097;52.548;13.406;2023-06-10T10:27:33;8.00;;;6.82;;
75516;SDS011;64097;52.548;13.406;2023-06-10T10:30:01;5.85;;;5.25;;
75516;SDS011;64097;52.548;13.406;2023-06-10T10:32:35;5.70;;;5.10;;
75516;SDS011;64097;52.548;13.406;2023-06-10T10:35:09;4.80;;;3.97;;
75516;SDS011;64097;52.548;13.406;2023-06-10T10:37:39;4.85;;;4.30;;
75516;SDS011;64097;52.548;13.406;2023-06-10T10:40:06;4.95;;;4.55;;
75516;SDS011;64097;52.548;13.406;2023-06-10T10:42:34;5.40;;;4.90;;
75516;SDS011;64097;52.548;13.406;2023-06-10T10:45:00;4.72;;;4.28;;
75516;SDS011;64097;52.548;13.406;2023-06-10T10:47:27;6.13;;;4.68;;
75516;SDS011;64097;52.548;13.406;2023-06-10T10:49:56;4.55;;;4.15;;
75516;SDS011;64097;52.548;13.406;2023-06-10T10:52:25;4.50;;;4.10;;
75516;SDS011;64097;52.548;13.406;2023-06-10T10:54:53;4.13;;;3.70;;
75516;SDS011;64097;52.548;13.406;2023-06-10T10:57:23;4.07;;;3.75;;
75516;SDS011;64097;52.548;13.406;2023-06-10T11:02:40;4.10;;;3.80;;
75516;SDS011;64097;52.548;13.406;2023-06-10T11:05:07;3.90;;;3.50;;
75516;SDS011;64097;52.548;13.406;2023-06-10T11:07:33;4.20;;;3.90;;
75516;SDS011;64097;52.548;13.406;2023-06-10T11:10:01;3.92;;;3.60;;
75516;SDS011;64097;52.548;13.406;2023-06-10T11:18:09;3.83;;;3.40;;
75516;SDS011;64097;52.548;13.406;2023-06-10T11:26:09;4.30;;;3.90;;
75516;SDS011;64097;52.548;13.406;2023-06-10T11:28:36;4.45;;;4.05;;
75516;SDS011;64097;52.548;13.406;2023-06-10T11:31:03;8.38;;;4.90;;
75516;SDS011;64097;52.548;13.406;2023-06-10T11:33:28;4.70;;;4.30;;
75516;SDS011;64097;52.548;13.406;2023-06-10T11:35:55;4.32;;;3.95;;
75516;SDS011;64097;52.548;13.406;2023-06-10T11:38:21;5.20;;;4.70;;
75516;SDS011;64097;52.548;13.406;2023-06-10T11:40:50;5.57;;;5.07;;
75516;SDS011;64097;52.548;13.406;2023-06-10T11:43:18;8.55;;;5.90;;
75516;SDS011;64097;52.548;13.406;2023-06-10T11:45:44;6.93;;;5.93;;
75516;SDS011;64097;52.548;13.406;2023-06-10T11:48:10;6.40;;;5.80;;
75516;SDS011;64097;52.548;13.406;2023-06-10T11:50:38;7.72;;;6.47;;
75516;SDS011;64097;52.548;13.406;2023-06-10T11:53:04;7.03;;;6.30;;
75516;SDS011;64097;52.548;13.406;2023-06-10T11:56:03;6.75;;;6.10;;
75516;SDS011;64097;52.548;13.406;2023-06-10T11:58:22;7.75;;;6.30;;
75516;SDS011;64097;52.548;13.406;2023-06-10T12:00:48;7.50;;;6.72;;
75516;SDS011;64097;52.548;13.406;2023-06-10T12:03:18;7.07;;;6.32;;
75516;SDS011;64097;52.548;13.406;2023-06-10T12:06:01;7.15;;;6.28;;
75516;SDS011;64097;52.548;13.406;2023-06-10T12:08:30;7.80;;;6.35;;
75516;SDS011;64097;52.548;13.406;2023-06-10T12:10:56;6.70;;;6.10;;
75516;SDS011;64097;52.548;13.406;2023-06-10T12:13:23;6.55;;;5.95;;
75516;SDS011;64097;52.548;13.406;2023-06-10T12:15:51;6.07;;;5.50;;
75516;SDS011;64097;52.548;13.406;2023-06-10T12:18:17;5.88;;;5.38;;
75516;SDS011;64097;52.548;13.406;2023-06-10T12:20:57;5.10;;;4.70;;
75516;SDS011;64097;52.548;13.406;2023-06-10T12:23:23;4.70;;;4.20;;
75516;SDS011;64097;52.548;13.406;2023-06-10T12:25:52;4.75;;;4.30;;
75516;SDS011;64097;52.548;13.406;2023-06-10T12:28:22;5.03;;;4.63;;
75516;SDS011;64097;52.548;13.406;2023-06-10T12:30:49;4.97;;;4.53;;
75516;SDS011;64097;52.548;13.406;2023-06-10T12:33:18;4.80;;;4.40;;
75516;SDS011;64097;52.548;13.406;2023-06-10T12:35:48;5.07;;;4.68;;
75516;SDS011;64097;52.548;13.406;2023-06-10T12:38:18;6.53;;;5.30;;
75516;SDS011;64097;52.548;13.406;2023-06-10T12:40:52;5.25;;;4.85;;
75516;SDS011;64097;52.548;13.406;2023-06-10T12:43:22;5.40;;;4.90;;
75516;SDS011;64097;52.548;13.406;2023-06-10T12:45:48;6.30;;;5.70;;
75516;SDS011;64097;52.548;13.406;2023-06-10T12:50:50;7.32;;;6.63;;
75516;SDS011;64097;52.548;13.406;2023-06-10T12:53:21;7.07;;;6.47;;
75516;SDS011;64097;52.548;13.406;2023-06-10T12:55:53;7.57;;;6.87;;
75516;SDS011;64097;52.548;13.406;2023-06-10T12:58:19;7.85;;;7.18;;
75516;SDS011;64097;52.548;13.406;2023-06-10T13:00:45;7.78;;;7.07;;
75516;SDS011;64097;52.548;13.406;2023-06-10T13:03:13;7.95;;;7.22;;
75516;SDS011;64097;52.548;13.406;2023-06-10T13:05:39;9.55;;;8.57;;
75516;SDS011;64097;52.548;13.406;2023-06-10T13:08:05;7.00;;;6.43;;
75516;SDS011;64097;52.548;13.406;2023-06-10T13:10:32;8.38;;;7.55;;
75516;SDS011;64097;52.548;13.406;2023-06-10T13:12:59;7.35;;;6.75;;
75516;SDS011;64097;52.548;13.406;2023-06-10T13:15:25;7.75;;;7.07;;
75516;SDS011;64097;52.548;13.406;2023-06-10T13:17:51;7.72;;;7.03;;
75516;SDS011;64097;52.548;13.406;2023-06-10T13:20:17;7.35;;;6.70;;
75516;SDS011;64097;52.548;13.406;2023-06-10T13:22:44;7.43;;;6.82;;
75516;SDS011;64097;52.548;13.406;2023-06-10T13:25:10;7.97;;;7.13;;
75516;SDS011;64097;52.548;13.406;2023-06-10T13:27:36;8.00;;;7.20;;
75516;SDS011;64097;52.548;13.406;2023-06-10T13:30:08;7.78;;;7.10;;
75516;SDS011;64097;52.548;13.406;2023-06-10T13:32:35;8.05;;;7.35;;
75516;SDS011;64097;52.548;13.406;2023-06-10T13:35:01;7.40;;;6.70;;
75516;SDS011;64097;52.548;13.406;2023-06-10T13:37:28;7.45;;;6.75;;
75516;SDS011;64097;52.548;13.406;2023-06-10T13:39:54;6.78;;;6.20;;
75516;SDS011;64097;52.548;13.406;2023-06-10T13:42:19;7.47;;;6.60;;
75516;SDS011;64097;52.548;13.406;2023-06-10T13:44:46;7.65;;;6.95;;
75516;SDS011;64097;52.548;13.406;2023-06-10T13:47:12;8.18;;;7.38;;
75516;SDS011;64097;52.548;13.406;2023-06-10T13:49:38;9.38;;;7.57;;
75516;SDS011;64097;52.548;13.406;2023-06-10T13:52:05;7.85;;;7.07;;
75516;SDS011;64097;52.548;13.406;2023-06-10T13:54:31;7.70;;;7.00;;
75516;SDS011;64097;52.548;13.406;2023-06-10T13:56:57;9.40;;;7.95;;
75516;SDS011;64097;52.548;13.406;2023-06-10T13:59:23;8.02;;;7.10;;
